Time;durP1;ratioP1;P1;durP2;ratioP2;P2;SDS_P1;SDS_P2;PMS_P1;PMS_P2;Temp;Humidity;BMP_temperature;BMP_pressure;BME280_temperature;BME280_humidity;BME280_pressure;Samples;Min_cycle;Max_cycle;Signal;HPM_P1;HPM_P2
2021/06/01 09:21:34;;;;;;;15.35;2.70;;;24.70;74.90;;;;;;5083628;28;20418;-78
2021/06/01 09:24:03;;;;;;;7.65;2.30;;;24.80;74.50;;;;;;5086626;28;20065;-78
2021/06/01 09:26:39;;;;;;;4.68;2.20;;;24.90;75.60;;;;;;5089692;28;20328;-79
2021/06/01 09:29:05;;;;;;;6.43;2.63;;;25.10;74.30;;;;;;5088696;28;20031;-79
2021/06/01 09:31:30;;;;;;;3.05;2.10;;;25.20;74.20;;;;;;5089489;28;20025;-79
2021/06/01 09:33:56;;;;;;;4.95;2.15;;;25.40;73.20;;;;;;5087491;28;20544;-79
2021/06/01 09:36:23;;;;;;;4.13;2.17;;;25.60;71.70;;;;;;5084591;28;20028;-79
2021/06/01 09:38:48;;;;;;;3.55;2.10;;;25.70;72.90;;;;;;5087070;28;20036;-78
2021/06/01 09:41:34;;;;;;;6.68;2.38;;;26.00;72.10;;;;;;5090474;28;20078;-79
2021/06/01 09:44:02;;;;;;;5.15;2.00;;;26.30;69.70;;;;;;5089327;28;20404;-79
2021/06/01 09:46:34;;;;;;;3.53;2.15;;;26.70;68.80;;;;;;5098414;28;20031;-80
2021/06/01 09:49:12;;;;;;;3.70;2.08;;;27.10;67.30;;;;;;5087026;28;20024;-79
2021/06/01 09:51:41;;;;;;;4.68;1.95;;;27.40;65.50;;;;;;5088364;28;20028;-79
2021/06/01 09:54:26;;;;;;;5.95;2.35;;;27.70;65.50;;;;;;5088183;28;20020;-79
2021/06/01 09:56:52;;;;;;;4.72;2.10;;;27.80;65.40;;;;;;5092080;28;20032;-79
2021/06/01 09:59:18;;;;;;;5.50;2.25;;;27.80;64.90;;;;;;5088878;28;20028;-79
2021/06/01 10:01:44;;;;;;;3.97;2.20;;;27.80;64.40;;;;;;5087231;28;20035;-79
2021/06/01 10:04:20;;;;;;;3.47;2.28;;;27.60;63.40;;;;;;5086772;28;20027;-79
2021/06/01 10:06:46;;;;;;;12.25;4.18;;;27.70;64.80;;;;;;5093811;28;20381;-78
2021/06/01 10:09:12;;;;;;;81.45;18.40;;;27.80;61.90;;;;;;5083868;28;20028;-79
2021/06/01 10:11:38;;;;;;;58.90;14.75;;;27.80;63.90;;;;;;5085589;28;20043;-78
2021/06/01 10:14:04;;;;;;;72.50;18.50;;;27.80;63.20;;;;;;5086351;28;20119;-78
2021/06/01 10:16:30;;;;;;;46.22;12.20;;;27.90;63.50;;;;;;5094520;28;20544;-79
2021/06/01 10:18:55;;;;;;;32.05;9.32;;;27.90;62.60;;;;;;5085814;28;20024;-78
2021/06/01 10:21:21;;;;;;;30.55;9.20;;;27.80;61.60;;;;;;5089873;28;20073;-80
2021/06/01 10:23:51;;;;;;;43.03;12.05;;;27.80;62.00;;;;;;5086791;28;20031;-78
2021/06/01 10:26:17;;;;;;;67.60;18.67;;;27.70;62.20;;;;;;5094153;28;20017;-78
2021/06/01 10:28:47;;;;;;;31.90;8.65;;;27.90;64.00;;;;;;5081085;28;20587;-78
2021/06/01 10:31:16;;;;;;;19.02;6.18;;;27.90;63.10;;;;;;5081626;28;20021;-78
2021/06/01 10:33:47;;;;;;;6.10;3.00;;;27.70;62.40;;;;;;5073268;28;20083;-79
2021/06/01 10:53:25;;;;;;;4.28;2.10;;;27.70;63.40;;;;;;5066077;28;20607;-77
2021/06/01 10:55:58;;;;;;;4.13;2.50;;;27.70;63.40;;;;;;5076715;28;20033;-79
2021/06/01 10:58:51;;;;;;;5.53;2.28;;;28.00;62.70;;;;;;5069925;28;20068;-78
2021/06/01 11:04:29;;;;;;;4.65;2.47;;;28.30;60.30;;;;;;5070857;28;20035;-79
2021/06/01 11:09:34;;;;;;;;;;;27.90;60.70;;;;;;5064256;28;20123;-78
2021/06/01 11:12:18;;;;;;;9.10;3.03;;;27.80;64.60;;;;;;5067413;28;20388;-78
2021/06/01 11:14:45;;;;;;;6.50;2.63;;;27.30;66.60;;;;;;5070912;28;20426;-78
2021/06/01 11:17:11;;;;;;;5.35;2.40;;;27.10;68.30;;;;;;5070495;28;20044;-78
2021/06/01 11:20:14;;;;;;;7.10;2.50;;;27.00;69.10;;;;;;5072625;28;20079;-78
2021/06/01 11:33:41;;;;;;;6.75;2.40;;;26.90;68.10;;;;;;5057973;28;20090;-79
2021/06/01 11:36:11;;;;;;;5.40;2.47;;;26.70;69.00;;;;;;5075444;28;20029;-80
2021/06/01 11:38:52;;;;;;;7.93;2.40;;;26.80;68.30;;;;;;5070675;28;20036;-79
2021/06/01 11:44:14;;;;;;;9.20;2.75;;;26.80;67.80;;;;;;5063441;28;20039;-78
2021/06/01 11:46:50;;;;;;;4.00;2.83;;;26.70;69.60;;;;;;5078390;28;20019;-78
2021/06/01 11:52:01;;;;;;;4.85;2.60;;;26.80;70.20;;;;;;5065074;28;20031;-78
2021/06/01 11:54:26;;;;;;;5.00;2.70;;;27.00;69.50;;;;;;5075167;28;20483;-77
2021/06/01 12:21:09;;;;;;;6.38;2.97;;;27.20;69.30;;;;;;5071356;28;20085;-78
2021/06/01 12:23:39;;;;;;;6.95;2.83;;;27.20;69.60;;;;;;5069518;28;20397;-77
2021/06/01 12:26:12;;;;;;;6.88;3.13;;;27.50;69.50;;;;;;5076493;28;20031;-88
2021/06/01 12:32:10;;;;;;;3.97;2.83;;;28.10;67.60;;;;;;5078124;28;20059;-78
2021/06/01 13:19:45;;;;;;;5.40;2.38;;;30.60;57.30;;;;;;5049033;28;20526;-78
2021/06/01 13:36:57;;;;;;;;;;;31.70;55.40;;;;;;5070931;28;20081;-79
2021/06/01 13:48:42;;;;;;;5.85;2.70;;;30.40;58.10;;;;;;5078872;28;20036;-79
2021/06/01 13:55:55;;;;;;;7.00;2.72;;;29.20;63.20;;;;;;5073935;28;20519;-78
2021/06/01 13:58:33;;;;;;;6.90;2.60;;;28.70;64.60;;;;;;5068605;28;20071;-78
2021/06/01 14:01:11;;;;;;;4.13;2.90;;;28.50;65.40;;;;;;5073180;28;20036;-78
2021/06/01 14:21:18;;;;;;;7.07;3.17;;;27.60;67.60;;;;;;5041554;28;20115;-78
2021/06/01 15:48:14;;;;;;;8.80;3.38;;;25.00;74.70;;;;;;5070007;28;20034;-78
2021/06/01 16:42:13;;;;;;;6.95;3.22;;;24.30;74.30;;;;;;5064225;28;20115;-78
2021/06/01 17:06:53;;;;;;;6.75;3.28;;;24.40;77.20;;;;;;5069652;28;20392;-79
2021/06/01 17:12:11;;;;;;;7.15;3.17;;;24.70;75.20;;;;;;5068569;28;20059;-79
2021/06/01 17:14:36;;;;;;;7.35;3.50;;;24.80;75.00;;;;;;5073417;28;20025;-79
2021/06/01 17:17:06;;;;;;;6.38;2.97;;;24.80;74.20;;;;;;5074210;28;20055;-79
2021/06/01 17:30:49;;;;;;;6.38;2.88;;;24.60;73.70;;;;;;5078738;28;20156;-79
2021/06/01 17:36:02;;;;;;;8.20;3.40;;;24.50;74.70;;;;;;5078312;28;20075;-79
2021/06/01 17:38:29;;;;;;;7.18;3.20;;;24.30;75.00;;;;;;5070008;28;20476;-78
2021/06/01 17:41:00;;;;;;;7.53;3.20;;;24.30;75.60;;;;;;5086726;28;20024;-78
2021/06/01 17:43:31;;;;;;;9.45;3.17;;;24.30;76.10;;;;;;5073404;28;20480;-77
2021/06/01 17:46:00;;;;;;;7.18;3.00;;;24.20;76.80;;;;;;5082142;28;20110;-78
2021/06/01 17:48:33;;;;;;;7.05;3.30;;;24.30;77.00;;;;;;5075022;28;20048;-79
2021/06/01 17:51:02;;;;;;;6.23;3.10;;;24.20;77.00;;;;;;5077810;28;20013;-79
2021/06/01 17:53:31;;;;;;;9.10;3.42;;;24.10;77.60;;;;;;5072534;28;20391;-78
2021/06/01 17:55:57;;;;;;;7.47;3.20;;;24.10;78.60;;;;;;5079339;28;20063;-79
2021/06/01 17:58:24;;;;;;;6.20;3.55;;;24.10;79.30;;;;;;5082732;28;20040;-78
2021/06/01 18:00:51;;;;;;;6.47;3.15;;;24.00;80.10;;;;;;5077555;28;20017;-78
2021/06/01 18:03:23;;;;;;;4.68;3.20;;;24.00;80.60;;;;;;5072366;28;20086;-78
2021/06/01 18:05:52;;;;;;;8.95;3.50;;;23.90;81.00;;;;;;5078373;28;20021;-78
2021/06/01 19:52:21;;;;;;;11.18;3.78;;;22.30;92.70;;;;;;5067313;28;20021;-79
2021/06/01 19:54:50;;;;;;;10.40;3.75;;;22.30;92.70;;;;;;5076217;28;20318;-78
2021/06/01 19:57:18;;;;;;;9.13;3.90;;;22.30;92.90;;;;;;5070632;28;20024;-78
2021/06/01 19:59:45;;;;;;;8.23;4.03;;;22.30;93.10;;;;;;5072578;28;20016;-78
2021/06/01 20:02:18;;;;;;;6.68;3.60;;;22.30;92.70;;;;;;5071900;28;20028;-78
2021/06/01 20:04:45;;;;;;;8.98;3.80;;;22.30;92.70;;;;;;5073757;28;20046;-79
2021/06/01 20:07:12;;;;;;;8.60;3.55;;;22.30;92.90;;;;;;5078570;28;20106;-79
2021/06/01 20:09:39;;;;;;;7.78;3.70;;;22.20;92.60;;;;;;5074335;28;20024;-79
2021/06/01 20:12:07;;;;;;;11.52;4.10;;;22.30;92.40;;;;;;5074343;28;20021;-79
2021/06/01 20:14:34;;;;;;;7.18;4.30;;;22.30;92.40;;;;;;5074886;28;20089;-78
2021/06/01 20:17:01;;;;;;;10.32;4.13;;;22.30;92.30;;;;;;5074925;28;20071;-78
2021/06/01 20:19:30;;;;;;;11.25;3.88;;;22.30;92.10;;;;;;5073784;28;20024;-78
2021/06/01 20:21:57;;;;;;;8.57;3.72;;;22.30;92.00;;;;;;5071139;28;20400;-78
2021/06/01 20:24:27;;;;;;;7.40;3.50;;;22.30;91.90;;;;;;5069128;28;20024;-78
2021/06/01 20:26:52;;;;;;;9.32;4.03;;;22.20;92.10;;;;;;5071721;28;20021;-79
2021/06/01 20:29:20;;;;;;;7.88;3.75;;;22.30;92.10;;;;;;5072475;28;20032;-78
2021/06/01 20:33:06;;;;;;;9.75;3.60;;;22.20;92.10;;;;;;5072665;28;20020;-81
2021/06/01 20:34:44;;;;;;;11.43;3.50;;;22.20;92.20;;;;;;5075759;28;20063;-88
2021/06/01 20:37:10;;;;;;;7.47;3.63;;;22.30;92.30;;;;;;5069866;28;20325;-88
2021/06/01 20:39:43;;;;;;;7.88;3.60;;;22.20;92.20;;;;;;5074619;28;20050;-87
2021/06/01 20:42:10;;;;;;;7.53;3.50;;;22.30;92.10;;;;;;5072210;28;20025;-88
2021/06/01 20:44:36;;;;;;;10.63;3.53;;;22.30;92.10;;;;;;5073234;28;20054;-87
2021/06/01 20:47:03;;;;;;;8.82;3.63;;;22.30;92.00;;;;;;5069375;28;20062;-88
2021/06/01 20:49:29;;;;;;;6.93;3.22;;;22.20;91.90;;;;;;5073684;28;20032;-87
2021/06/01 20:51:56;;;;;;;10.57;3.70;;;22.20;92.10;;;;;;5071252;28;20020;-87
2021/06/01 20:54:24;;;;;;;11.18;3.38;;;22.10;92.20;;;;;;5072422;28;20103;-88
2021/06/01 20:56:53;;;;;;;6.88;3.78;;;22.10;92.40;;;;;;5080400;28;20543;-87
2021/06/01 20:59:21;;;;;;;7.30;3.40;;;22.10;92.40;;;;;;5070294;28;20158;-91
2021/06/01 21:01:50;;;;;;;8.00;3.45;;;22.10;92.60;;;;;;5072775;28;20017;-88
2021/06/01 21:04:20;;;;;;;8.05;3.55;;;22.10;92.80;;;;;;5071238;28;20051;-88
2021/06/01 21:06:49;;;;;;;10.32;4.35;;;22.10;93.30;;;;;;5071564;28;20043;-87
2021/06/01 21:09:14;;;;;;;7.72;4.28;;;22.10;93.60;;;;;;5071007;28;20044;-87
2021/06/01 21:11:41;;;;;;;7.30;4.03;;;22.00;94.20;;;;;;5079128;28;20048;-88
2021/06/01 21:14:10;;;;;;;7.40;4.60;;;22.00;95.40;;;;;;5072085;28;20031;-87
2021/06/01 21:16:36;;;;;;;9.18;4.72;;;21.90;96.30;;;;;;5073988;28;20033;-87
2021/06/01 21:19:05;;;;;;;10.10;4.47;;;21.90;97.10;;;;;;5070326;28;20089;-88
2021/06/01 21:21:31;;;;;;;8.40;4.60;;;21.80;98.10;;;;;;5071032;28;20023;-87
2021/06/01 21:23:58;;;;;;;6.25;4.63;;;21.80;98.60;;;;;;5069240;28;20024;-91
2021/06/01 21:26:24;;;;;;;10.52;5.63;;;21.80;99.30;;;;;;5074135;28;20020;-87
2021/06/01 21:28:53;;;;;;;8.20;5.55;;;21.90;99.70;;;;;;5070096;28;20104;-87
2021/06/01 21:31:22;;;;;;;8.48;5.28;;;21.80;99.90;;;;;;5088478;28;20103;-87
2021/06/01 21:34:03;;;;;;;7.90;4.90;;;21.80;99.90;;;;;;5069874;28;20025;-87
2021/06/01 21:36:30;;;;;;;11.15;5.22;;;21.80;99.90;;;;;;5076129;28;20321;-87
2021/06/01 21:38:57;;;;;;;9.85;5.13;;;21.80;99.90;;;;;;5070241;28;20064;-87
2021/06/01 21:41:23;;;;;;;10.70;5.95;;;21.80;99.90;;;;;;5078375;28;20016;-88
2021/06/01 21:43:49;;;;;;;6.80;4.97;;;21.80;99.90;;;;;;5068410;28;20064;-88
2021/06/01 21:46:16;;;;;;;10.07;5.50;;;21.70;99.90;;;;;;5074412;28;20055;-87
2021/06/01 21:48:46;;;;;;;9.65;5.80;;;21.70;99.90;;;;;;5069471;28;20082;-88
2021/06/01 21:51:13;;;;;;;7.25;5.57;;;21.70;99.90;;;;;;5070961;28;20021;-86
2021/06/01 21:53:44;;;;;;;12.10;6.20;;;21.70;99.90;;;;;;5068875;28;20166;-87
2021/06/01 21:56:12;;;;;;;5.90;5.30;;;21.70;99.90;;;;;;5080580;28;20012;-87
2021/06/01 21:58:38;;;;;;;10.52;5.53;;;21.70;99.90;;;;;;5074244;28;20041;-88
2021/06/01 22:01:04;;;;;;;9.88;5.68;;;21.60;99.90;;;;;;5074846;28;20029;-88
2021/06/01 22:03:30;;;;;;;9.35;5.93;;;21.60;99.90;;;;;;5069290;28;20103;-87
2021/06/01 22:05:56;;;;;;;12.43;6.13;;;21.50;99.90;;;;;;5074252;28;20021;-87
2021/06/01 22:08:23;;;;;;;10.73;6.18;;;21.50;99.90;;;;;;5069196;28;20080;-87
2021/06/01 22:10:50;;;;;;;10.32;6.50;;;21.40;99.90;;;;;;5076986;28;20082;-88
2021/06/01 22:13:18;;;;;;;13.07;6.57;;;21.30;99.90;;;;;;5069252;28;20017;-87
2021/06/01 22:15:44;;;;;;;8.07;5.10;;;21.10;99.90;;;;;;5073681;28;20025;-87
2021/06/01 22:18:20;;;;;;;12.57;5.65;;;21.00;99.90;;;;;;5068732;28;20446;-87
2021/06/01 22:21:09;;;;;;;13.68;4.82;;;20.90;99.90;;;;;;5077308;28;20016;-87
2021/06/01 22:23:56;;;;;;;15.98;6.07;;;20.90;99.90;;;;;;5059574;28;20173;-88
2021/06/01 22:26:43;;;;;;;12.90;5.38;;;20.60;99.90;;;;;;5079757;28;20025;-88
2021/06/01 22:29:08;;;;;;;13.10;5.40;;;20.40;99.90;;;;;;5073157;28;20058;-88
2021/06/01 22:31:41;;;;;;;10.95;5.07;;;20.30;99.90;;;;;;5081576;28;20017;-87
2021/06/01 22:34:08;;;;;;;10.88;5.03;;;20.30;99.90;;;;;;5073990;28;20070;-87
2021/06/01 22:36:38;;;;;;;11.55;4.97;;;20.20;99.90;;;;;;5074098;28;20017;-87
2021/06/01 22:39:14;;;;;;;11.38;5.57;;;20.30;99.90;;;;;;5073676;28;20037;-88
2021/06/01 22:41:41;;;;;;;14.48;5.40;;;20.30;99.90;;;;;;5072438;28;20051;-88
2021/06/01 22:44:08;;;;;;;13.35;4.82;;;20.30;99.90;;;;;;5074393;28;20023;-87
2021/06/01 22:46:35;;;;;;;8.38;5.40;;;20.20;99.90;;;;;;5077120;28;20190;-87
2021/06/01 22:49:04;;;;;;;15.88;5.35;;;20.30;99.90;;;;;;5073708;28;20047;-87
2021/06/01 22:51:33;;;;;;;12.77;5.47;;;20.30;99.90;;;;;;5076983;28;20016;-88
2021/06/01 22:54:07;;;;;;;11.25;5.07;;;20.20;99.90;;;;;;5073802;28;20392;-88
2021/06/01 22:56:39;;;;;;;13.15;5.10;;;20.20;99.90;;;;;;5085868;28;20238;-87
2021/06/01 22:59:16;;;;;;;10.57;4.75;;;20.30;99.90;;;;;;5075001;28;20055;-87
2021/06/01 23:01:44;;;;;;;9.77;4.90;;;20.30;99.90;;;;;;5088476;28;20499;-87
2021/06/01 23:04:13;;;;;;;10.05;5.10;;;20.30;99.90;;;;;;5071842;28;20036;-87
2021/06/01 23:06:44;;;;;;;13.32;5.32;;;20.30;99.90;;;;;;5072956;28;20020;-86
2021/06/01 23:09:12;;;;;;;12.05;4.85;;;20.30;99.90;;;;;;5074052;28;20021;-87
2021/06/01 23:11:46;;;;;;;9.60;4.82;;;20.30;99.90;;;;;;5089424;28;20389;-88
2021/06/01 23:14:20;;;;;;;9.82;4.68;;;20.40;99.90;;;;;;5072028;28;20262;-87
2021/06/01 23:16:46;;;;;;;10.60;4.85;;;20.40;99.90;;;;;;5078524;28;20032;-87
2021/06/01 23:19:14;;;;;;;10.35;4.57;;;20.50;99.90;;;;;;5072419;28;20046;-88
2021/06/01 23:21:43;;;;;;;9.98;4.80;;;20.50;99.90;;;;;;5076353;28;20023;-87
2021/06/01 23:24:11;;;;;;;12.25;4.75;;;20.50;99.90;;;;;;5072427;28;20038;-87
2021/06/01 23:26:38;;;;;;;8.98;5.03;;;20.50;99.90;;;;;;5065751;28;20067;-88
2021/06/01 23:29:07;;;;;;;7.82;4.32;;;20.30;99.90;;;;;;5072295;28;20033;-87
2021/06/01 23:31:33;;;;;;;8.60;4.55;;;20.30;99.90;;;;;;5076792;28;20032;-87
2021/06/01 23:33:59;;;;;;;11.55;4.90;;;20.40;99.90;;;;;;5071730;28;20043;-88
2021/06/01 23:36:44;;;;;;;12.35;4.60;;;20.50;99.90;;;;;;5078268;28;20020;-87
2021/06/01 23:39:27;;;;;;;10.80;4.72;;;20.60;99.90;;;;;;5072802;28;20560;-87
2021/06/01 23:41:53;;;;;;;9.63;4.43;;;20.60;99.90;;;;;;5074510;28;20099;-88
2021/06/01 23:44:24;;;;;;;10.93;4.90;;;20.70;99.90;;;;;;5073794;28;20287;-87
2021/06/01 23:46:51;;;;;;;13.75;4.55;;;20.70;99.90;;;;;;5074215;28;20032;-87
2021/06/01 23:52:23;;;;;;;11.10;4.78;;;20.70;99.90;;;;;;5015779;28;20025;-87
2021/06/01 23:54:50;;;;;;;13.77;4.45;;;20.80;99.90;;;;;;5068038;28;20048;-88
2021/06/01 23:57:16;;;;;;;8.95;4.72;;;20.80;99.90;;;;;;5070689;28;20052;-88
2021/06/01 23:59:42;;;;;;;11.07;5.30;;;20.70;99.90;;;;;;5083007;28;20107;-88
